SCTE 230400Z 01009KT 9999 OVC020 14/13 Q1016 NOSIG